Spirit of New Zealand — ZMSV — position and weather

sailwx.info

Track history (hours):
 
Tides and Currents Weather Stations Pressure Air Temp Water Temp Dewpoint Dewpoint Depression Visibility Wind Speed Wind Dir Waves Ship Positions

Spirit of New Zealand

Last reported at 2017-Jun-23 17:28 UTC. Time now 2017-Jun-23 20:37 UTC.
Position S 36°50' E 175°00'.

Length 45 m; draft 4.1 m.

Type: Passenger vessel. MMSI: 512201000.

Date/timePositionNaut miles runAvg speedWind from/ knotsBaromVisibWave heightAir tempDewpointWater temp
2017-Jun-23 17:28S 36°50' E 175°00'10 1.1
2017-Jun-23 08:20S 36°50' E 174°47'1 3.2
2017-Jun-23 07:55S 36°51' E 174°46'0 0.0
2017-Jun-23 07:19S 36°51' E 174°46'0 0.0
2017-Jun-23 06:49S 36°51' E 174°46'0 0.0
2017-Jun-23 06:19S 36°51' E 174°46'0 0.0
2017-Jun-22 20:00S 36°51' E 174°46'0 0.0
2017-Jun-22 19:30S 36°51' E 174°46'0 0.0
2017-Jun-22 19:00S 36°51' E 174°46'0 0.0
2017-Jun-22 18:30S 36°51' E 174°46'0 0.0
2017-Jun-22 17:48S 36°51' E 174°46'0 0.0
2017-Jun-22 17:30S 36°51' E 174°46'0 0.0
2017-Jun-22 17:00S 36°51' E 174°46'0 0.0
2017-Jun-22 16:30S 36°51' E 174°46'0 0.0
2017-Jun-22 16:00S 36°51' E 174°46'0 0.0
2017-Jun-22 14:42S 36°51' E 174°46'0 0.0
2017-Jun-22 14:24S 36°51' E 174°46'0 0.0
2017-Jun-22 07:30S 36°51' E 174°46'0 0.0
2017-Jun-22 05:48S 36°51' E 174°46'0 0.0
2017-Jun-22 05:24S 36°51' E 174°46'0 0.0
2017-Jun-22 05:00S 36°51' E 174°46'0 0.0
2017-Jun-22 04:24S 36°51' E 174°46'0 0.0
2017-Jun-22 03:54S 36°51' E 174°46'0 0.0
2017-Jun-22 03:30S 36°51' E 174°46'0 0.0
2017-Jun-22 02:36S 36°51' E 174°46'0 0.1
2017-Jun-22 02:30S 36°51' E 174°46'0 0.0
2017-Jun-21 21:24S 36°51' E 174°46'0 0.0
2017-Jun-21 20:36S 36°51' E 174°46'0 0.0
2017-Jun-21 18:36S 36°51' E 174°46'0 0.0
2017-Jun-21 18:18S 36°51' E 174°46'0 0.0
2017-Jun-21 18:00S 36°51' E 174°46'0 0.0
2017-Jun-21 17:30S 36°51' E 174°46'0 0.0
2017-Jun-21 16:42S 36°51' E 174°46'0 0.0
2017-Jun-21 16:30S 36°51' E 174°46'0 0.0
2017-Jun-21 15:42S 36°51' E 174°46'0 0.0
2017-Jun-21 15:24S 36°51' E 174°46'0 0.0
2017-Jun-21 13:36S 36°51' E 174°46'0 0.0
2017-Jun-21 05:24S 36°51' E 174°46'0 0.0
2017-Jun-21 04:54S 36°51' E 174°46'0 0.0
2017-Jun-21 04:30S 36°51' E 174°46'0 0.0
2017-Jun-21 04:00S 36°51' E 174°46'0 0.0
2017-Jun-21 03:30S 36°51' E 174°46'1 1.2
2017-Jun-21 02:51S 36°50' E 174°45'3 8.8
2017-Jun-21 02:29S 36°50' E 174°49'2 4.3
2017-Jun-21 01:59S 36°48' E 174°49'0 0.0
2017-Jun-21 01:29S 36°48' E 174°49'0 0.0
2017-Jun-21 00:53S 36°48' E 174°49'0 0.0
2017-Jun-21 00:29S 36°48' E 174°49'0 0.0
2017-Jun-20 21:21S 36°47' E 174°49'2 6.1
2017-Jun-20 21:00S 36°49' E 174°50'5 7.8
2017-Jun-20 20:26S 36°49' E 174°56'0 0.0
2017-Jun-19 17:31S 36°49' E 174°56'0 0.0
2017-Jun-19 04:37S 36°49' E 174°56'0 0.0
2017-Jun-19 00:48S 36°49' E 174°56'1 3.5
2017-Jun-19 00:29S 36°48' E 174°56'4 7.9
2017-Jun-19 00:00S 36°45' E 174°60'9 0.2
2017-Jun-16 22:30S 36°49' E 174°50'4 3.2
2017-Jun-16 21:21S 36°51' E 174°46'0 0.0
2017-Jun-16 18:27S 36°51' E 174°46'0 0.0
2017-Jun-16 15:33S 36°51' E 174°46'0 0.1
2017-Jun-16 15:27S 36°51' E 174°46'0 0.0
2017-Jun-16 14:57S 36°51' E 174°46'0 0.0
2017-Jun-16 14:27S 36°51' E 174°46'0 0.0
2017-Jun-16 13:27S 36°51' E 174°46'0 0.0
2017-Jun-16 12:57S 36°51' E 174°46'0 0.0
2017-Jun-16 12:27S 36°51' E 174°46'0 0.0
2017-Jun-16 11:51S 36°51' E 174°46'0 0.0
2017-Jun-16 11:21S 36°51' E 174°46'0 0.0
2017-Jun-16 10:57S 36°51' E 174°46'0 0.0
2017-Jun-16 10:27S 36°51' E 174°46'0 0.0
2017-Jun-16 09:57S 36°51' E 174°46'0 0.0
2017-Jun-16 09:27S 36°51' E 174°46'0 0.0
2017-Jun-16 08:45S 36°51' E 174°46'0 0.0
2017-Jun-16 02:56S 36°51' E 174°46'2 4.8
2017-Jun-16 02:30S 36°50' E 174°48'2 4.5
2017-Jun-16 02:00S 36°48' E 174°49'3 5.4
2017-Jun-16 01:30S 36°45' E 174°50'3 5.4
2017-Jun-16 01:00S 36°44' E 174°52'2 3.9
2017-Jun-16 00:30S 36°43' E 174°54'3 4.5
2017-Jun-15 23:50S 36°43' E 174°58'5 0.3
2017-Jun-15 03:55S 36°48' E 174°57'0 0.2
2017-Jun-15 03:27S 36°48' E 174°57'0 0.0
2017-Jun-15 02:51S 36°48' E 174°57'0 0.0
2017-Jun-15 00:21S 36°48' E 174°57'0 0.0
2017-Jun-14 23:57S 36°48' E 174°57'0 0.0
2017-Jun-14 21:41S 36°48' E 174°57'2 9.0
2017-Jun-14 21:30S 36°47' E 174°58'  
Track history (hours):
 
Tides and Currents Weather Stations Pressure Air Temp Water Temp Dewpoint Dewpoint Depression Visibility Wind Speed Wind Dir Waves Ship Positions

Spirit of New Zealand

Last reported at 2017-Jun-23 17:28 UTC. Time now 2017-Jun-23 20:37 UTC.
Position S 36°50' E 175°00'.

Length 45 m; draft 4.1 m.

Type: Passenger vessel. MMSI: 512201000.

Date/timePositionNaut miles runAvg speedWind from/ knotsBaromVisibWave heightAir tempDewpointWater temp
2017-Jun-23 17:28S 36°50' E 175°00'10 1.1
2017-Jun-23 08:20S 36°50' E 174°47'1 3.2
2017-Jun-23 07:55S 36°51' E 174°46'0 0.0
2017-Jun-23 07:19S 36°51' E 174°46'0 0.0
2017-Jun-23 06:49S 36°51' E 174°46'0 0.0
2017-Jun-23 06:19S 36°51' E 174°46'0 0.0
2017-Jun-22 20:00S 36°51' E 174°46'0 0.0
2017-Jun-22 19:30S 36°51' E 174°46'0 0.0
2017-Jun-22 19:00S 36°51' E 174°46'0 0.0
2017-Jun-22 18:30S 36°51' E 174°46'0 0.0
2017-Jun-22 17:48S 36°51' E 174°46'0 0.0
2017-Jun-22 17:30S 36°51' E 174°46'0 0.0
2017-Jun-22 17:00S 36°51' E 174°46'0 0.0
2017-Jun-22 16:30S 36°51' E 174°46'0 0.0
2017-Jun-22 16:00S 36°51' E 174°46'0 0.0
2017-Jun-22 14:42S 36°51' E 174°46'0 0.0
2017-Jun-22 14:24S 36°51' E 174°46'0 0.0
2017-Jun-22 07:30S 36°51' E 174°46'0 0.0
2017-Jun-22 05:48S 36°51' E 174°46'0 0.0
2017-Jun-22 05:24S 36°51' E 174°46'0 0.0
2017-Jun-22 05:00S 36°51' E 174°46'0 0.0
2017-Jun-22 04:24S 36°51' E 174°46'0 0.0
2017-Jun-22 03:54S 36°51' E 174°46'0 0.0
2017-Jun-22 03:30S 36°51' E 174°46'0 0.0
2017-Jun-22 02:36S 36°51' E 174°46'0 0.1
2017-Jun-22 02:30S 36°51' E 174°46'0 0.0
2017-Jun-21 21:24S 36°51' E 174°46'0 0.0
2017-Jun-21 20:36S 36°51' E 174°46'0 0.0
2017-Jun-21 18:36S 36°51' E 174°46'0 0.0
2017-Jun-21 18:18S 36°51' E 174°46'0 0.0
2017-Jun-21 18:00S 36°51' E 174°46'0 0.0
2017-Jun-21 17:30S 36°51' E 174°46'0 0.0
2017-Jun-21 16:42S 36°51' E 174°46'0 0.0
2017-Jun-21 16:30S 36°51' E 174°46'0 0.0
2017-Jun-21 15:42S 36°51' E 174°46'0 0.0
2017-Jun-21 15:24S 36°51' E 174°46'0 0.0
2017-Jun-21 13:36S 36°51' E 174°46'0 0.0
2017-Jun-21 05:24S 36°51' E 174°46'0 0.0
2017-Jun-21 04:54S 36°51' E 174°46'0 0.0
2017-Jun-21 04:30S 36°51' E 174°46'0 0.0
2017-Jun-21 04:00S 36°51' E 174°46'0 0.0
2017-Jun-21 03:30S 36°51' E 174°46'1 1.2
2017-Jun-21 02:51S 36°50' E 174°45'3 8.8
2017-Jun-21 02:29S 36°50' E 174°49'2 4.3
2017-Jun-21 01:59S 36°48' E 174°49'0 0.0
2017-Jun-21 01:29S 36°48' E 174°49'0 0.0
2017-Jun-21 00:53S 36°48' E 174°49'0 0.0
2017-Jun-21 00:29S 36°48' E 174°49'0 0.0
2017-Jun-20 21:21S 36°47' E 174°49'2 6.1
2017-Jun-20 21:00S 36°49' E 174°50'5 7.8
2017-Jun-20 20:26S 36°49' E 174°56'0 0.0
2017-Jun-19 17:31S 36°49' E 174°56'0 0.0
2017-Jun-19 04:37S 36°49' E 174°56'0 0.0
2017-Jun-19 00:48S 36°49' E 174°56'1 3.5
2017-Jun-19 00:29S 36°48' E 174°56'4 7.9
2017-Jun-19 00:00S 36°45' E 174°60'9 0.2
2017-Jun-16 22:30S 36°49' E 174°50'4 3.2
2017-Jun-16 21:21S 36°51' E 174°46'0 0.0
2017-Jun-16 18:27S 36°51' E 174°46'0 0.0
2017-Jun-16 15:33S 36°51' E 174°46'0 0.1
2017-Jun-16 15:27S 36°51' E 174°46'0 0.0
2017-Jun-16 14:57S 36°51' E 174°46'0 0.0
2017-Jun-16 14:27S 36°51' E 174°46'0 0.0
2017-Jun-16 13:27S 36°51' E 174°46'0 0.0
2017-Jun-16 12:57S 36°51' E 174°46'0 0.0
2017-Jun-16 12:27S 36°51' E 174°46'0 0.0
2017-Jun-16 11:51S 36°51' E 174°46'0 0.0
2017-Jun-16 11:21S 36°51' E 174°46'0 0.0
2017-Jun-16 10:57S 36°51' E 174°46'0 0.0
2017-Jun-16 10:27S 36°51' E 174°46'0 0.0
2017-Jun-16 09:57S 36°51' E 174°46'0 0.0
2017-Jun-16 09:27S 36°51' E 174°46'0 0.0
2017-Jun-16 08:45S 36°51' E 174°46'0 0.0
2017-Jun-16 02:56S 36°51' E 174°46'2 4.8
2017-Jun-16 02:30S 36°50' E 174°48'2 4.5
2017-Jun-16 02:00S 36°48' E 174°49'3 5.4
2017-Jun-16 01:30S 36°45' E 174°50'3 5.4
2017-Jun-16 01:00S 36°44' E 174°52'2 3.9
2017-Jun-16 00:30S 36°43' E 174°54'3 4.5
2017-Jun-15 23:50S 36°43' E 174°58'5 0.3
2017-Jun-15 03:55S 36°48' E 174°57'0 0.2
2017-Jun-15 03:27S 36°48' E 174°57'0 0.0
2017-Jun-15 02:51S 36°48' E 174°57'0 0.0
2017-Jun-15 00:21S 36°48' E 174°57'0 0.0
2017-Jun-14 23:57S 36°48' E 174°57'0 0.0
2017-Jun-14 21:41S 36°48' E 174°57'2 9.0
2017-Jun-14 21:30S 36°47' E 174°58'  

Dump ship's entire track history